Meloria — IBXK — position and weather

sailwx.info

Track history (hours):
 
Tides and Currents Weather Stations Pressure Air Temp Water Temp Dewpoint Dewpoint Depression Visibility Wind Speed Wind Dir Waves Ship Positions

Meloria

Last reported at 2015-Apr-18 06:33 UTC. Time now 2015-Apr-18 07:18 UTC.
Position N 40°50' E 014°18'.

Length 176 m; draft 10.3 m.

Type: Tanker. MMSI: 247171100.

Date/timePositionNaut miles runAvg speedWind from/ knotsBaromVisibWave heightAir tempDewpointWater temp
2015-Apr-18 06:33N 40°50' E 014°18'2 1.8
2015-Apr-18 05:31N 40°49' E 014°19'0 0.1
2015-Apr-18 04:31N 40°49' E 014°19'0 0.0
2015-Apr-18 03:10N 40°49' E 014°19'0 0.0
2015-Apr-18 02:31N 40°49' E 014°19'0 0.0
2015-Apr-18 01:07N 40°49' E 014°19'0 0.0
2015-Apr-18 00:25N 40°49' E 014°19'0 0.0
2015-Apr-17 21:31N 40°49' E 014°19'0 0.0
2015-Apr-17 20:22N 40°49' E 014°19'0 0.0
2015-Apr-17 19:25N 40°49' E 014°19'0 0.0
2015-Apr-17 17:07N 40°49' E 014°19'0 0.0
2015-Apr-17 16:31N 40°49' E 014°19'0 0.0
2015-Apr-17 14:27N 40°49' E 014°19'0 0.1
2015-Apr-17 13:18N 40°48' E 014°19'0 0.0
2015-Apr-17 12:30N 40°48' E 014°19'0 0.0
2015-Apr-17 11:24N 40°48' E 014°19'0 0.0
2015-Apr-17 10:30N 40°48' E 014°19'0 0.0
2015-Apr-17 09:24N 40°48' E 014°19'3 3.9
2015-Apr-17 08:33N 40°46' E 014°17'1212.1
2015-Apr-17 07:33N 40°35' E 014°10'3712.1
2015-Apr-17 04:28N 40°01' E 014°32'6812.6
2015-Apr-16 23:05N 39°02' E 015°15'1912.2
2015-Apr-16 21:31N 38°44' E 015°21'1212.2
2015-Apr-16 20:33N 38°32' E 015°19'1312.4
2015-Apr-16 19:32N 38°20' E 015°18'7 6.8
2015-Apr-16 18:29N 38°13' E 015°16'0 0.0
2015-Apr-16 17:29N 38°13' E 015°16'0 0.0
2015-Apr-16 16:29N 38°13' E 015°16'0 0.0
2015-Apr-16 15:29N 38°13' E 015°16'0 0.0
2015-Apr-16 14:29N 38°13' E 015°16'0 0.0
2015-Apr-16 13:29N 38°13' E 015°16'0 0.0
2015-Apr-16 12:29N 38°13' E 015°16'0 0.0
2015-Apr-16 11:29N 38°13' E 015°16'0 0.0
2015-Apr-16 10:29N 38°13' E 015°16'0 0.0
2015-Apr-16 09:29N 38°13' E 015°16'0 0.0
2015-Apr-16 08:29N 38°13' E 015°16'0 0.0
2015-Apr-16 07:29N 38°13' E 015°16'0 0.0
2015-Apr-16 06:29N 38°13' E 015°16'0 0.0
2015-Apr-16 05:29N 38°13' E 015°16'0 0.0
2015-Apr-15 18:28N 38°13' E 015°16'0 0.0
2015-Apr-15 17:28N 38°13' E 015°16'0 0.0
2015-Apr-15 16:28N 38°13' E 015°16'0 0.0
2015-Apr-15 15:28N 38°13' E 015°16'0 0.0
2015-Apr-15 14:28N 38°13' E 015°16'0 0.0
2015-Apr-15 13:28N 38°13' E 015°16'0 0.0
2015-Apr-15 12:28N 38°13' E 015°16'0 0.0
2015-Apr-15 11:28N 38°13' E 015°16'0 0.0
2015-Apr-15 10:28N 38°13' E 015°16'1 0.7
2015-Apr-15 09:21N 38°13' E 015°17'0 0.1
2015-Apr-15 08:31N 38°13' E 015°17'0 0.1
2015-Apr-15 07:31N 38°13' E 015°17'0 0.1
2015-Apr-15 06:31N 38°13' E 015°17'0 0.0
2015-Apr-15 05:31N 38°13' E 015°17'150 7.5
2015-Apr-14 09:33N 40°33' E 014°08'1312.8
2015-Apr-14 08:33N 40°45' E 014°15'5 5.5
2015-Apr-14 07:33N 40°50' E 014°18'0 0.0
2015-Apr-14 06:15N 40°50' E 014°18'0 0.0
2015-Apr-14 05:06N 40°50' E 014°18'0 0.0
2015-Apr-14 04:24N 40°50' E 014°18'0 0.0
2015-Apr-14 03:21N 40°50' E 014°18'0 0.0
2015-Apr-14 02:21N 40°50' E 014°18'0 0.0
2015-Apr-14 01:33N 40°50' E 014°18'0 0.0
2015-Apr-14 00:30N 40°50' E 014°18'0 0.0
2015-Apr-13 23:24N 40°50' E 014°18'0 0.0
2015-Apr-13 22:33N 40°50' E 014°18'0 0.0
2015-Apr-13 21:30N 40°50' E 014°18'0 0.0
2015-Apr-13 20:27N 40°50' E 014°18'0 0.0
2015-Apr-13 19:27N 40°50' E 014°18'0 0.0
2015-Apr-13 16:27N 40°50' E 014°18'0 0.0
2015-Apr-13 15:18N 40°50' E 014°18'0 0.0
2015-Apr-13 14:21N 40°50' E 014°18'0 0.0
2015-Apr-13 13:21N 40°50' E 014°18'0 0.0
2015-Apr-13 12:18N 40°50' E 014°18'0 0.0
2015-Apr-13 11:30N 40°50' E 014°18'0 0.0
2015-Apr-13 10:21N 40°50' E 014°18'0 0.0
2015-Apr-13 08:30N 40°50' E 014°18'0 0.0
2015-Apr-13 07:15N 40°50' E 014°18'0 0.0
2015-Apr-13 06:27N 40°50' E 014°18'0 0.0
2015-Apr-13 05:33N 40°50' E 014°18'0 0.0
2015-Apr-13 04:32N 40°50' E 014°18'0 0.0
2015-Apr-13 03:32N 40°50' E 014°18'0 0.0
2015-Apr-13 02:17N 40°50' E 014°18'0 0.0
2015-Apr-13 01:26N 40°50' E 014°18'0 0.0
2015-Apr-13 00:32N 40°50' E 014°18'0 0.0
2015-Apr-12 23:14N 40°50' E 014°18'0 0.0
2015-Apr-12 22:23N 40°50' E 014°18'0 0.0
2015-Apr-12 21:23N 40°50' E 014°18'0 0.0
2015-Apr-12 20:29N 40°50' E 014°18'0 0.0
2015-Apr-12 17:17N 40°50' E 014°18'0 0.0
2015-Apr-12 16:11N 40°50' E 014°18'0 0.0
2015-Apr-12 15:32N 40°50' E 014°18'0 0.0
2015-Apr-12 11:29N 40°50' E 014°18'0 0.0
2015-Apr-12 10:11N 40°50' E 014°18'0 0.0
2015-Apr-12 09:05N 40°50' E 014°18'0 0.0
2015-Apr-12 08:17N 40°50' E 014°18'0 0.0
2015-Apr-12 07:33N 40°50' E 014°18'5 5.1
2015-Apr-12 06:33N 40°45' E 014°17'1212.4
2015-Apr-12 05:33N 40°34' E 014°10'1312.0
2015-Apr-12 04:31N 40°22' E 014°17'13612.2
2015-Apr-11 17:23N 38°14' E 015°16'2 2.1
2015-Apr-11 16:32N 38°13' E 015°16'0 0.0
2015-Apr-11 15:32N 38°13' E 015°16'0 0.0
2015-Apr-11 14:32N 38°13' E 015°16'0 0.0
2015-Apr-11 13:32N 38°13' E 015°16'0 0.0
2015-Apr-11 12:32N 38°13' E 015°16'0 0.0
2015-Apr-11 11:32N 38°13' E 015°16'0 0.0
2015-Apr-11 10:32N 38°13' E 015°16'0 0.0
2015-Apr-11 09:32N 38°13' E 015°16'0 0.0
2015-Apr-11 08:32N 38°13' E 015°16'0 0.0
2015-Apr-11 07:32N 38°13' E 015°16'0 0.0
2015-Apr-11 06:32N 38°13' E 015°16'0 0.0
2015-Apr-11 05:32N 38°13' E 015°16'0 0.0
2015-Apr-11 04:32N 38°13' E 015°16'0 0.0
2015-Apr-11 03:32N 38°13' E 015°16'0 0.0
2015-Apr-11 02:32N 38°13' E 015°16'0 0.0
2015-Apr-11 01:32N 38°13' E 015°16'0 0.0
2015-Apr-11 00:32N 38°13' E 015°16'0 0.0
2015-Apr-10 23:32N 38°13' E 015°16'0 0.0
2015-Apr-10 22:32N 38°13' E 015°16'0 0.0
2015-Apr-10 21:08N 38°13' E 015°16'0 0.0
2015-Apr-10 20:32N 38°13' E 015°16'0 0.0
2015-Apr-10 19:32N 38°13' E 015°16'0 0.0
2015-Apr-10 18:32N 38°13' E 015°16'0 0.0
2015-Apr-10 17:32N 38°13' E 015°16'0 0.0
2015-Apr-10 16:32N 38°13' E 015°16'0 0.0
2015-Apr-10 13:32N 38°13' E 015°16'0 0.0
2015-Apr-10 12:32N 38°13' E 015°16'0 0.0
2015-Apr-10 11:32N 38°13' E 015°16'0 0.0
2015-Apr-10 10:32N 38°13' E 015°16'1 0.6
2015-Apr-10 09:33N 38°13' E 015°16'1 0.9
2015-Apr-10 08:29N 38°13' E 015°17'0 0.1
2015-Apr-10 07:29N 38°13' E 015°18'0 0.1
2015-Apr-10 06:29N 38°13' E 015°17'0 0.0
2015-Apr-10 05:29N 38°13' E 015°17'0 0.0
2015-Apr-10 04:29N 38°13' E 015°17'0 0.0
2015-Apr-10 03:29N 38°13' E 015°17'0 0.0
2015-Apr-10 02:29N 38°13' E 015°17'0 0.1
2015-Apr-10 01:29N 38°13' E 015°17'0 0.1
2015-Apr-10 00:29N 38°13' E 015°18'0 0.0
2015-Apr-09 23:29N 38°13' E 015°18'0 0.0
2015-Apr-09 22:29N 38°13' E 015°18'0 0.0
2015-Apr-09 21:29N 38°13' E 015°18'0 0.0
2015-Apr-09 20:29N 38°13' E 015°18'0 0.0
2015-Apr-09 19:29N 38°13' E 015°17'0 0.0
2015-Apr-09 18:29N 38°13' E 015°17'0 0.0
2015-Apr-09 17:29N 38°13' E 015°17'0 0.0
2015-Apr-09 16:29N 38°13' E 015°17'0 0.0
2015-Apr-09 15:29N 38°13' E 015°17'0 0.0
2015-Apr-09 14:29N 38°13' E 015°17'0 0.0
2015-Apr-09 13:29N 38°13' E 015°17'0 0.0
2015-Apr-09 12:29N 38°13' E 015°17'0 0.0
2015-Apr-09 11:28N 38°13' E 015°17'0 0.0
2015-Apr-09 10:28N 38°13' E 015°17'0 0.0
2015-Apr-09 09:28N 38°13' E 015°17'0 0.0
2015-Apr-09 08:28N 38°13' E 015°17'0 0.0
2015-Apr-09 07:28N 38°13' E 015°17'0 0.0
2015-Apr-09 06:28N 38°13' E 015°17'0 0.0
2015-Apr-09 05:28N 38°13' E 015°17'0 0.0
2015-Apr-08 17:28N 38°13' E 015°17'0 0.0
2015-Apr-08 16:28N 38°13' E 015°17'0 0.0
2015-Apr-08 15:28N 38°13' E 015°17'0 0.0
2015-Apr-08 14:28N 38°13' E 015°17'0 0.0
2015-Apr-08 13:28N 38°13' E 015°17'0 0.0
2015-Apr-08 12:28N 38°13' E 015°17'0 0.0
2015-Apr-08 11:28N 38°13' E 015°17'0 0.0
2015-Apr-08 10:28N 38°13' E 015°17'0 0.0
2015-Apr-08 09:28N 38°13' E 015°17'0 0.0
2015-Apr-08 08:28N 38°13' E 015°17'0 0.0
2015-Apr-08 07:28N 38°13' E 015°17'  
Track history (hours):
 
Tides and Currents Weather Stations Pressure Air Temp Water Temp Dewpoint Dewpoint Depression Visibility Wind Speed Wind Dir Waves Ship Positions

Meloria

Last reported at 2015-Apr-18 06:33 UTC. Time now 2015-Apr-18 07:18 UTC.
Position N 40°50' E 014°18'.

Length 176 m; draft 10.3 m.

Type: Tanker. MMSI: 247171100.

Date/timePositionNaut miles runAvg speedWind from/ knotsBaromVisibWave heightAir tempDewpointWater temp
2015-Apr-18 06:33N 40°50' E 014°18'2 1.8
2015-Apr-18 05:31N 40°49' E 014°19'0 0.1
2015-Apr-18 04:31N 40°49' E 014°19'0 0.0
2015-Apr-18 03:10N 40°49' E 014°19'0 0.0
2015-Apr-18 02:31N 40°49' E 014°19'0 0.0
2015-Apr-18 01:07N 40°49' E 014°19'0 0.0
2015-Apr-18 00:25N 40°49' E 014°19'0 0.0
2015-Apr-17 21:31N 40°49' E 014°19'0 0.0
2015-Apr-17 20:22N 40°49' E 014°19'0 0.0
2015-Apr-17 19:25N 40°49' E 014°19'0 0.0
2015-Apr-17 17:07N 40°49' E 014°19'0 0.0
2015-Apr-17 16:31N 40°49' E 014°19'0 0.0
2015-Apr-17 14:27N 40°49' E 014°19'0 0.1
2015-Apr-17 13:18N 40°48' E 014°19'0 0.0
2015-Apr-17 12:30N 40°48' E 014°19'0 0.0
2015-Apr-17 11:24N 40°48' E 014°19'0 0.0
2015-Apr-17 10:30N 40°48' E 014°19'0 0.0
2015-Apr-17 09:24N 40°48' E 014°19'3 3.9
2015-Apr-17 08:33N 40°46' E 014°17'1212.1
2015-Apr-17 07:33N 40°35' E 014°10'3712.1
2015-Apr-17 04:28N 40°01' E 014°32'6812.6
2015-Apr-16 23:05N 39°02' E 015°15'1912.2
2015-Apr-16 21:31N 38°44' E 015°21'1212.2
2015-Apr-16 20:33N 38°32' E 015°19'1312.4
2015-Apr-16 19:32N 38°20' E 015°18'7 6.8
2015-Apr-16 18:29N 38°13' E 015°16'0 0.0
2015-Apr-16 17:29N 38°13' E 015°16'0 0.0
2015-Apr-16 16:29N 38°13' E 015°16'0 0.0
2015-Apr-16 15:29N 38°13' E 015°16'0 0.0
2015-Apr-16 14:29N 38°13' E 015°16'0 0.0
2015-Apr-16 13:29N 38°13' E 015°16'0 0.0
2015-Apr-16 12:29N 38°13' E 015°16'0 0.0
2015-Apr-16 11:29N 38°13' E 015°16'0 0.0
2015-Apr-16 10:29N 38°13' E 015°16'0 0.0
2015-Apr-16 09:29N 38°13' E 015°16'0 0.0
2015-Apr-16 08:29N 38°13' E 015°16'0 0.0
2015-Apr-16 07:29N 38°13' E 015°16'0 0.0
2015-Apr-16 06:29N 38°13' E 015°16'0 0.0
2015-Apr-16 05:29N 38°13' E 015°16'0 0.0
2015-Apr-15 18:28N 38°13' E 015°16'0 0.0
2015-Apr-15 17:28N 38°13' E 015°16'0 0.0
2015-Apr-15 16:28N 38°13' E 015°16'0 0.0
2015-Apr-15 15:28N 38°13' E 015°16'0 0.0
2015-Apr-15 14:28N 38°13' E 015°16'0 0.0
2015-Apr-15 13:28N 38°13' E 015°16'0 0.0
2015-Apr-15 12:28N 38°13' E 015°16'0 0.0
2015-Apr-15 11:28N 38°13' E 015°16'0 0.0
2015-Apr-15 10:28N 38°13' E 015°16'1 0.7
2015-Apr-15 09:21N 38°13' E 015°17'0 0.1
2015-Apr-15 08:31N 38°13' E 015°17'0 0.1
2015-Apr-15 07:31N 38°13' E 015°17'0 0.1
2015-Apr-15 06:31N 38°13' E 015°17'0 0.0
2015-Apr-15 05:31N 38°13' E 015°17'150 7.5
2015-Apr-14 09:33N 40°33' E 014°08'1312.8
2015-Apr-14 08:33N 40°45' E 014°15'5 5.5
2015-Apr-14 07:33N 40°50' E 014°18'0 0.0
2015-Apr-14 06:15N 40°50' E 014°18'0 0.0
2015-Apr-14 05:06N 40°50' E 014°18'0 0.0
2015-Apr-14 04:24N 40°50' E 014°18'0 0.0
2015-Apr-14 03:21N 40°50' E 014°18'0 0.0
2015-Apr-14 02:21N 40°50' E 014°18'0 0.0
2015-Apr-14 01:33N 40°50' E 014°18'0 0.0
2015-Apr-14 00:30N 40°50' E 014°18'0 0.0
2015-Apr-13 23:24N 40°50' E 014°18'0 0.0
2015-Apr-13 22:33N 40°50' E 014°18'0 0.0
2015-Apr-13 21:30N 40°50' E 014°18'0 0.0
2015-Apr-13 20:27N 40°50' E 014°18'0 0.0
2015-Apr-13 19:27N 40°50' E 014°18'0 0.0
2015-Apr-13 16:27N 40°50' E 014°18'0 0.0
2015-Apr-13 15:18N 40°50' E 014°18'0 0.0
2015-Apr-13 14:21N 40°50' E 014°18'0 0.0
2015-Apr-13 13:21N 40°50' E 014°18'0 0.0
2015-Apr-13 12:18N 40°50' E 014°18'0 0.0
2015-Apr-13 11:30N 40°50' E 014°18'0 0.0
2015-Apr-13 10:21N 40°50' E 014°18'0 0.0
2015-Apr-13 08:30N 40°50' E 014°18'0 0.0
2015-Apr-13 07:15N 40°50' E 014°18'0 0.0
2015-Apr-13 06:27N 40°50' E 014°18'0 0.0
2015-Apr-13 05:33N 40°50' E 014°18'0 0.0
2015-Apr-13 04:32N 40°50' E 014°18'0 0.0
2015-Apr-13 03:32N 40°50' E 014°18'0 0.0
2015-Apr-13 02:17N 40°50' E 014°18'0 0.0
2015-Apr-13 01:26N 40°50' E 014°18'0 0.0
2015-Apr-13 00:32N 40°50' E 014°18'0 0.0
2015-Apr-12 23:14N 40°50' E 014°18'0 0.0
2015-Apr-12 22:23N 40°50' E 014°18'0 0.0
2015-Apr-12 21:23N 40°50' E 014°18'0 0.0
2015-Apr-12 20:29N 40°50' E 014°18'0 0.0
2015-Apr-12 17:17N 40°50' E 014°18'0 0.0
2015-Apr-12 16:11N 40°50' E 014°18'0 0.0
2015-Apr-12 15:32N 40°50' E 014°18'0 0.0
2015-Apr-12 11:29N 40°50' E 014°18'0 0.0
2015-Apr-12 10:11N 40°50' E 014°18'0 0.0
2015-Apr-12 09:05N 40°50' E 014°18'0 0.0
2015-Apr-12 08:17N 40°50' E 014°18'0 0.0
2015-Apr-12 07:33N 40°50' E 014°18'5 5.1
2015-Apr-12 06:33N 40°45' E 014°17'1212.4
2015-Apr-12 05:33N 40°34' E 014°10'1312.0
2015-Apr-12 04:31N 40°22' E 014°17'13612.2
2015-Apr-11 17:23N 38°14' E 015°16'2 2.1
2015-Apr-11 16:32N 38°13' E 015°16'0 0.0
2015-Apr-11 15:32N 38°13' E 015°16'0 0.0
2015-Apr-11 14:32N 38°13' E 015°16'0 0.0
2015-Apr-11 13:32N 38°13' E 015°16'0 0.0
2015-Apr-11 12:32N 38°13' E 015°16'0 0.0
2015-Apr-11 11:32N 38°13' E 015°16'0 0.0
2015-Apr-11 10:32N 38°13' E 015°16'0 0.0
2015-Apr-11 09:32N 38°13' E 015°16'0 0.0
2015-Apr-11 08:32N 38°13' E 015°16'0 0.0
2015-Apr-11 07:32N 38°13' E 015°16'0 0.0
2015-Apr-11 06:32N 38°13' E 015°16'0 0.0
2015-Apr-11 05:32N 38°13' E 015°16'0 0.0
2015-Apr-11 04:32N 38°13' E 015°16'0 0.0
2015-Apr-11 03:32N 38°13' E 015°16'0 0.0
2015-Apr-11 02:32N 38°13' E 015°16'0 0.0
2015-Apr-11 01:32N 38°13' E 015°16'0 0.0
2015-Apr-11 00:32N 38°13' E 015°16'0 0.0
2015-Apr-10 23:32N 38°13' E 015°16'0 0.0
2015-Apr-10 22:32N 38°13' E 015°16'0 0.0
2015-Apr-10 21:08N 38°13' E 015°16'0 0.0
2015-Apr-10 20:32N 38°13' E 015°16'0 0.0
2015-Apr-10 19:32N 38°13' E 015°16'0 0.0
2015-Apr-10 18:32N 38°13' E 015°16'0 0.0
2015-Apr-10 17:32N 38°13' E 015°16'0 0.0
2015-Apr-10 16:32N 38°13' E 015°16'0 0.0
2015-Apr-10 13:32N 38°13' E 015°16'0 0.0
2015-Apr-10 12:32N 38°13' E 015°16'0 0.0
2015-Apr-10 11:32N 38°13' E 015°16'0 0.0
2015-Apr-10 10:32N 38°13' E 015°16'1 0.6
2015-Apr-10 09:33N 38°13' E 015°16'1 0.9
2015-Apr-10 08:29N 38°13' E 015°17'0 0.1
2015-Apr-10 07:29N 38°13' E 015°18'0 0.1
2015-Apr-10 06:29N 38°13' E 015°17'0 0.0
2015-Apr-10 05:29N 38°13' E 015°17'0 0.0
2015-Apr-10 04:29N 38°13' E 015°17'0 0.0
2015-Apr-10 03:29N 38°13' E 015°17'0 0.0
2015-Apr-10 02:29N 38°13' E 015°17'0 0.1
2015-Apr-10 01:29N 38°13' E 015°17'0 0.1
2015-Apr-10 00:29N 38°13' E 015°18'0 0.0
2015-Apr-09 23:29N 38°13' E 015°18'0 0.0
2015-Apr-09 22:29N 38°13' E 015°18'0 0.0
2015-Apr-09 21:29N 38°13' E 015°18'0 0.0
2015-Apr-09 20:29N 38°13' E 015°18'0 0.0
2015-Apr-09 19:29N 38°13' E 015°17'0 0.0
2015-Apr-09 18:29N 38°13' E 015°17'0 0.0
2015-Apr-09 17:29N 38°13' E 015°17'0 0.0
2015-Apr-09 16:29N 38°13' E 015°17'0 0.0
2015-Apr-09 15:29N 38°13' E 015°17'0 0.0
2015-Apr-09 14:29N 38°13' E 015°17'0 0.0
2015-Apr-09 13:29N 38°13' E 015°17'0 0.0
2015-Apr-09 12:29N 38°13' E 015°17'0 0.0
2015-Apr-09 11:28N 38°13' E 015°17'0 0.0
2015-Apr-09 10:28N 38°13' E 015°17'0 0.0
2015-Apr-09 09:28N 38°13' E 015°17'0 0.0
2015-Apr-09 08:28N 38°13' E 015°17'0 0.0
2015-Apr-09 07:28N 38°13' E 015°17'0 0.0
2015-Apr-09 06:28N 38°13' E 015°17'0 0.0
2015-Apr-09 05:28N 38°13' E 015°17'0 0.0
2015-Apr-08 17:28N 38°13' E 015°17'0 0.0
2015-Apr-08 16:28N 38°13' E 015°17'0 0.0
2015-Apr-08 15:28N 38°13' E 015°17'0 0.0
2015-Apr-08 14:28N 38°13' E 015°17'0 0.0
2015-Apr-08 13:28N 38°13' E 015°17'0 0.0
2015-Apr-08 12:28N 38°13' E 015°17'0 0.0
2015-Apr-08 11:28N 38°13' E 015°17'0 0.0
2015-Apr-08 10:28N 38°13' E 015°17'0 0.0
2015-Apr-08 09:28N 38°13' E 015°17'0 0.0
2015-Apr-08 08:28N 38°13' E 015°17'0 0.0
2015-Apr-08 07:28N 38°13' E 015°17'  

Dump ship's entire track history